Alejandro Ferreyra

Olheiro - Boca Juniors
23 Jan 2028
Domingo
Processo

Personalidade

Adaptabilidade (14) Ambição (14) Controvérsia (19) Lealdade (7) Pressão (15) Profissionalismo (1) Espírito Esportivo (16) Temperamento (14)

Perfil

Estilo de Treinamento Democrático
Licença Continental Pro
Determinação 13
Gestão de Pessoas 7
Motivação 11
Disciplina 12
Satisfação no Trabalho
41%
Fadiga
0%
Função Olheiro
Salário 35.0K p/s
Contrato 14.03.2030

Desempenho

Comportamento Bom
Eficácia do Treinamento
23%
Desenvolvimento do Jogador
60%
Prevenção de Lesões
50%
Implementação Tática
70%

Eventos Recentes

Recomendou um alvo de transferência agora
Recomendou um alvo de transferência agora
Participou de uma reunião de recrutamento agora
Participando de desenvolvimento profissional agora
Participando de desenvolvimento profissional agora
Avaliou um jogador agora
Avaliou um jogador agora
Participando de desenvolvimento profissional agora

Monitorando agora

209
Jogador Clube Status Habilidade Confiança Observado Última observação Último voto
Kostantis Tzolakis Brighton Ativo 143 / 157 40% 1 21.01.2028 -
Jakub Stolarczyk Middlesbrough Ativo 150 / 141 40% 1 21.01.2028 -
Elia Caprile Cagliari Ativo 144 / 156 40% 16 20.01.2028 -
Antonín Kinský Tottenham Ativo 162 / 150 40% 1 20.01.2028 -
Lukáš Horníček Burnley Ativo 160 / 146 40% 3 19.01.2028 -
Bradley Barcola Liverpool Ativo 169 / 163 40% 2 19.01.2028 -
Fábio Carvalho Brentford Ativo 136 / 144 40% 1 19.01.2028 -
Radek Vítek Middlesbrough Ativo 138 / 145 40% 7 17.01.2028 -
Manuel Roffo Hajduk Split Ativo 152 / 142 40% 1 17.01.2028 -
Arnau Tenas Villarreal Ativo 147 / 147 40% 2 16.01.2028 -
Gianluigi Donnarumma AS Roma Ativo 180 / 167 40% 2 16.01.2028 -
Bryan Mbeumo Manchester United Ativo 165 / 161 40% 1 16.01.2028 -
Emanuel Emegha Chelsea Ativo 149 / 144 40% 1 15.01.2028 -
Nicolás González Juventus Ativo 166 / 155 40% 1 15.01.2028 -
Giorgi Mamardashvili Liverpool Ativo 167 / 168 40% 5 11.01.2028 -
Joseph Leclercq Tottenham Ativo 176 / 167 40% 3 08.01.2028 -
Mile Svilar AS Roma Ativo 173 / 160 40% 17 08.01.2028 -
Brennan Johnson Middlesbrough Ativo 146 / 147 40% 2 08.01.2028 -
Nicolas Jackson Aston Villa Ativo 164 / 158 40% 1 08.01.2028 -
Senne Lammens Manchester United Ativo 161 / 162 40% 2 06.01.2028 -
Anthony Patterson Wrexham Ativo 129 / 135 40% 2 03.01.2028 -
Sam Tickle Modena Ativo 149 / 137 40% 11 01.01.2028 -
Zion Suzuki Aston Villa Ativo 156 / 150 40% 2 01.01.2028 -
Maduka Okoye Udinese Ativo 144 / 143 40% 7 31.12.2027 -
Arijanet Murić Sassuolo Ativo 136 / 149 40% 3 27.12.2027 -
Sam Proctor Salford City Ativo 118 / 119 40% 1 25.12.2027 -
Franco Israel Torino Ativo 153 / 138 40% 4 23.12.2027 -
Christos Mandas Lazio Ativo 144 / 149 40% 13 22.12.2027 -
James Trafford Leeds United Ativo 159 / 153 40% 6 20.12.2027 -
Jacob Widell Zetterström Derby County Ativo 139 / 133 40% 3 19.12.2027 -
Oliver Dovin Coventry City Ativo 127 / 145 40% 2 19.12.2027 -
Caoimhin Kelleher Brentford Ativo 163 / 163 40% 5 17.12.2027 -
Carl Rushworth Aston Villa Ativo 147 / 152 40% 1 16.12.2027 -
Ander Astralaga Newcastle United Ativo 128 / 134 40% 1 13.12.2027 -
Josh Keeley Luton Town Ativo 146 / 141 40% 1 12.12.2027 -
Viktor Johansson Stoke City Ativo 128 / 135 40% 5 11.12.2027 -
Robin Roefs Sunderland Ativo 151 / 152 40% 4 04.12.2027 -
Georginio Rutter Brighton Ativo 151 / 159 40% 1 02.12.2027 -
Alex Verón Vélez Ativo 120 / 121 62% 1 01.12.2027 Aprovar
Gabriel Martinelli Arsenal Ativo 156 / 159 40% 1 30.11.2027 -
Kevin Schade Chelsea Ativo 146 / 154 40% 1 30.11.2027 -
Mads Hermansen West Ham United Ativo 144 / 145 40% 2 29.11.2027 -
Michael Cooper Sheffield United Ativo 125 / 135 40% 2 24.11.2027 -
Quilindschy Hartman Burnley Ativo 138 / 148 40% 1 22.11.2027 -
Jan Paul van Hecke Tottenham Ativo 156 / 155 40% 1 22.11.2027 -
Jake O'Brien Everton Ativo 155 / 156 40% 2 20.11.2027 -
Sandro Tonali Tottenham Ativo 170 / 179 40% 1 20.11.2027 -
Hákon Rafn Valdimarsson Southampton Ativo 153 / 152 40% 1 18.11.2027 -
Bart Verbruggen Liverpool Ativo 150 / 154 40% 2 15.11.2027 -
Angeliño AS Roma Ativo 145 / 154 40% 2 14.11.2027 -
Youssouf Fofana AC Milan Ativo 147 / 162 40% 1 14.11.2027 -
Adam Wharton Crystal Palace Ativo 150 / 163 40% 5 13.11.2027 -
Adrien Truffert Bournemouth Ativo 157 / 149 40% 2 13.11.2027 -
Brandon Austin Brighton Ativo 127 / 139 40% 1 09.11.2027 -
Martín Zubimendi Arsenal Ativo 182 / 162 40% 1 07.11.2027 -
William Saliba Arsenal Ativo 174 / 172 40% 1 07.11.2027 -
Alexis Mac Allister Liverpool Ativo 165 / 162 40% 2 03.11.2027 -
Gerard Martín Barcelona Ativo 144 / 151 40% 2 03.11.2027 -
Iker Muñoz Osasuna Ativo 146 / 131 40% 2 30.10.2027 -
Justin Bijlow Atalanta Ativo 138 / 149 40% 5 29.10.2027 -
Sebastiano Desplanches Palermo Ativo 150 / 142 40% 5 26.10.2027 -
Josep Martínez Inter Ativo 149 / 141 40% 12 24.10.2027 -
Lucas Chevalier AC Milan Ativo 163 / 161 40% 14 21.10.2027 -
Roger Ibañez Al-Ahli Ativo 154 / 150 40% 3 20.10.2027 -
Evan N'Dicka AS Roma Ativo 160 / 160 40% 2 20.10.2027 -
Gustavo Mantuan Zenit Ativo 139 / 128 40% 1 19.10.2027 -
Gedson Fernandes Spartak Moscow Ativo 142 / 136 40% 1 12.10.2027 -
César Tárrega Valencia Ativo 149 / 145 40% 1 09.10.2027 -
Wendel Zenit Ativo 160 / 138 40% 1 09.10.2027 -
Khéphren Thuram Juventus Ativo 159 / 163 40% 3 04.10.2027 -
Jorrel Hato Chelsea Ativo 158 / 153 40% 1 04.10.2027 -
Matěj Kovář TSG Hoffenheim Ativo 129 / 138 40% 1 04.10.2027 -
Tim Iroegbunam Peterborough United Ativo 130 / 141 40% 1 28.09.2027 -
Tijjani Reijnders Al-Qadisiyah Ativo 152 / 159 40% 7 27.09.2027 -
Vitor Reis Manchester City Ativo 129 / 150 40% 1 21.09.2027 -
Marc Roca Betis Ativo 131 / 138 40% 1 21.09.2027 -
Ethan Ampadu Leeds United Ativo 157 / 149 40% 2 15.09.2027 -
Éderson Fiorentina Ativo 152 / 170 40% 1 15.09.2027 -
Oliver Christensen Fiorentina Ativo 131 / 136 40% 2 12.09.2027 -
Rico Henry River Plate Ativo 141 / 138 40% 1 12.09.2027 -
Mirza Ćatović VfB Stuttgart Ativo 129 / 132 40% 1 10.09.2027 -
Matias Siltanen Malmo FF Ativo 110 / 125 40% 1 10.09.2027 -
Eliás Montiel Borussia Dortmund Ativo 144 / 134 40% 1 09.09.2027 -
Luka Vušković Tottenham Ativo 157 / 147 40% 1 08.09.2027 -
Jens Cajuste Napoli Ativo 133 / 133 40% 2 02.09.2027 -
Daniel Peretz Bayern Munich Ativo 153 / 133 40% 1 02.09.2027 -
Jorge Moreno Athletic Bilbao Ativo 133 / 130 40% 1 02.09.2027 -
Juan Manuel Villalba Tigre Ativo 115 / 119 40% 1 01.09.2027 Mais informações
David Carmo Olympiacos Ativo 153 / 139 40% 1 31.08.2027 -
Alessandro Bastoni Inter Ativo 180 / 174 40% 1 31.08.2027 -
Mike Penders Chelsea Ativo 131 / 141 40% 3 23.08.2027 -
Douglas Luiz Juventus Ativo 136 / 153 40% 1 21.08.2027 -
Kilian Fischer VfL Wolfsburg Ativo 147 / 127 40% 1 20.08.2027 -
Noel Törnqvist Como Ativo 129 / 144 40% 2 19.08.2027 -
Edoardo Corvi Palermo Ativo 125 / 141 40% 1 19.08.2027 -
Raoul Bellanova Atalanta Ativo 149 / 150 40% 1 08.08.2027 -
Mateu Morey Girona Ativo 129 / 137 40% 1 08.08.2027 -
Filip Stanković Lazio Ativo 131 / 144 40% 1 02.08.2027 -
Victor Hernandez Santa Fe Ativo 124 / 122 40% 1 02.08.2027 -
Álvaro Fernández Valencia Ativo 133 / 137 40% 1 27.07.2027 -
Diego Mascardi Juventus Ativo 122 / 137 40% 2 24.07.2027 -
Marc Cucurella Real Madrid Ativo 161 / 158 40% 1 19.06.2027 -
Curtis Jones Inter Ativo 166 / 152 40% 3 14.06.2027 -
Mathías de Ritis San Lorenzo Ativo 126 / 120 58% 1 07.06.2027 -
Federico Ravaglia Bologna Ativo 129 / 145 40% 1 06.06.2027 -
Tobías Rubio Racing Club Ativo 116 / 120 58% 1 03.06.2027 Aprovar
Eduardo Lozano Botafogo Ativo 136 / 145 40% 4 01.06.2027 -
Luiz Henrique AS Roma Ativo 142 / 143 68% 1 01.06.2027 Aprovar
Thiago Almada LOSC Lille Ativo 145 / 146 69% 1 01.06.2027 Aprovar
Sindre Walle Egeli Udinese Ativo 122 / 135 40% 1 01.06.2027 -
Manu Koné AS Roma Ativo 168 / 155 40% 2 30.05.2027 -
Nuno Tavares Lazio Ativo 140 / 137 40% 3 30.05.2027 -
Lautaro Martínez Inter Ativo 178 / 174 40% 4 30.05.2027 -
Santiago Castro AS Roma Ativo 148 / 157 40% 1 30.05.2027 -
Assane Diao Como Ativo 137 / 142 40% 2 29.05.2027 -
Giacomo Raspadori Atalanta Ativo 162 / 152 40% 3 27.05.2027 -
Arthur Atta Fiorentina Ativo 145 / 136 40% 3 25.05.2027 -
Nadir Zortea Bologna Ativo 149 / 136 40% 2 25.05.2027 -
Francesco Pio Esposito Inter Ativo 152 / 149 40% 2 25.05.2027 -
Kenan Yıldız Juventus Ativo 153 / 168 40% 5 18.05.2027 -
João Félix Dinamo Moscow Perdido 150 / 150 40% 3 16.05.2027 -
Christian Pulisic AC Milan Ativo 151 / 157 40% 6 15.05.2027 -
Sidiki Chérif Newcastle United Ativo 137 / 139 40% 1 12.05.2027 -
Gonçalo Ramos AC Milan Ativo 165 / 155 40% 2 11.05.2027 -
Nicolò Zaniolo Udinese Ativo 132 / 148 40% 5 08.05.2027 -
Lewis Ferguson Bologna Ativo 146 / 141 40% 1 03.05.2027 -
Enrico Delprato Parma Ativo 140 / 144 40% 1 03.05.2027 -
Steven Bergwijn Al-Ittihad Ativo 145 / 153 40% 2 26.04.2027 -
Mateus Mané Burnley Ativo 133 / 132 40% 1 19.04.2027 -
Lucas Da Cunha Como Ativo 139 / 151 40% 2 15.04.2027 -
Teun Koopmeiners Juventus Ativo 135 / 146 40% 2 13.04.2027 -
Kobbie Mainoo Manchester United Ativo 164 / 157 40% 2 13.04.2027 -
Tasos Douvikas Como Ativo 138 / 136 40% 1 06.04.2027 -
Benjamin White Arsenal Ativo 160 / 149 40% 2 04.04.2027 -
Gianluca Mancini AS Roma Ativo 164 / 157 40% 1 03.04.2027 -
Omar Nader Nottingham Forest Ativo 125 / 144 40% 1 30.03.2027 -
Thierry Rendall Correia Venezia Ativo 152 / 145 40% 1 30.03.2027 -
Amadou Onana Aston Villa Ativo 142 / 162 40% 3 26.03.2027 -
Nordi Mukiele Sunderland Ativo 152 / 151 40% 2 26.03.2027 -
Thiago Brentford Ativo 154 / 142 40% 1 23.03.2027 -
Mohammed Kudus Tottenham Ativo 148 / 156 40% 1 23.03.2027 -
Ryan Gravenberch Liverpool Ativo 169 / 156 40% 2 22.03.2027 -
Kai Havertz Arsenal Ativo 179 / 160 40% 1 20.03.2027 -
João Pedro Chelsea Ativo 166 / 152 40% 1 20.03.2027 -
Hugo Ekitiké Liverpool Ativo 165 / 163 40% 1 19.03.2027 -
Iliman N'Diaye Everton Ativo 156 / 148 40% 1 18.03.2027 -
Anton Stach Leeds United Ativo 145 / 153 40% 2 16.03.2027 -
Noussair Mazraoui Manchester United Ativo 157 / 154 40% 2 16.03.2027 -
Alex Scott Bournemouth Ativo 150 / 154 40% 2 13.03.2027 -
Azor Matusiwa Ipswich Town Ativo 141 / 136 40% 1 12.03.2027 -
Levi Colwill Chelsea Ativo 150 / 160 40% 1 12.03.2027 -
Tyler Adams Bournemouth Ativo 149 / 160 40% 1 11.03.2027 -
Jurriën Timber Arsenal Ativo 167 / 163 40% 1 10.03.2027 -
Dara O'Shea Ipswich Town Ativo 131 / 142 40% 1 10.03.2027 -
Xaver Schlager Nottingham Forest Ativo 162 / 147 40% 2 09.03.2027 -
James Garner Everton Ativo 152 / 143 40% 1 09.03.2027 -
Quinten Timber Crystal Palace Ativo 136 / 158 40% 1 07.03.2027 -
Mats Wieffer Brighton Ativo 159 / 156 40% 2 06.03.2027 -
André Wolverhampton Ativo 142 / 138 40% 1 06.03.2027 -
Olivier Boscagli Brighton Ativo 136 / 149 40% 1 05.03.2027 -
Maxence Lacroix Chelsea Ativo 161 / 151 40% 1 05.03.2027 -
Joško Gvardiol Manchester City Ativo 171 / 171 40% 1 28.02.2027 -
Jacob Greaves Ipswich Town Ativo 132 / 144 40% 2 25.02.2027 -
Óscar Mingueza Crystal Palace Ativo 160 / 140 40% 3 24.02.2027 -
Lewis Hall Newcastle United Ativo 158 / 160 40% 2 23.02.2027 -
Matheus Nunes Manchester City Ativo 158 / 154 40% 2 20.02.2027 -
Tino Livramento Newcastle United Ativo 146 / 149 40% 4 18.02.2027 -
Gabriel Arsenal Ativo 183 / 180 40% 1 14.02.2027 -
Jarrad Branthwaite Everton Ativo 146 / 153 40% 2 06.02.2027 -
Aaron Hickey Brentford Ativo 146 / 137 40% 2 04.02.2027 -
Moisés Caicedo Chelsea Ativo 156 / 163 40% 2 04.02.2027 -
Miloš Kerkez Liverpool Ativo 152 / 150 40% 1 03.02.2027 -
Rúben Dias Manchester City Ativo 159 / 169 40% 1 02.02.2027 -
Tomoki Hayakawa Kashima Antlers Ativo 130 / 128 40% 1 01.12.2026 -
Gianluca Scamacca Atalanta Ativo 152 / 141 40% 1 30.11.2026 -
Giorgio Scalvini Atalanta Ativo 145 / 142 40% 1 28.11.2026 -
Odilon Kossounou Atalanta Ativo 135 / 148 40% 1 27.11.2026 -
Oumar Solet Udinese Ativo 159 / 148 40% 1 27.11.2026 -
Franck Kessié Atalanta Ativo 156 / 148 40% 1 23.11.2026 -
Manuel Locatelli Juventus Ativo 140 / 157 40% 2 22.11.2026 -
Petar Sučić Inter Ativo 139 / 149 40% 1 20.11.2026 -
Trevoh Chalobah Como Ativo 153 / 163 40% 1 18.11.2026 -
Wilson Odobert Brighton Ativo 135 / 133 40% 2 16.11.2026 -
Nahuel Molina AS Roma Ativo 158 / 137 40% 2 16.11.2026 -
Kenneth Taylor Lazio Ativo 134 / 148 40% 1 11.11.2026 -
Dodo Fiorentina Ativo 137 / 139 40% 1 08.11.2026 -
Oscar Al-Taawoun Ativo 153 / 134 40% 1 07.11.2026 -
Keisuke Osako Sanfrecce Hiroshima Ativo 140 / 130 40% 2 06.11.2026 -
Carlos Augusto Inter Ativo 163 / 153 40% 1 05.11.2026 -
Caleb Yirenkyi Coventry City Ativo 144 / 136 40% 1 05.11.2026 -
Ferdi Kadıoğlu Brighton Ativo 137 / 153 40% 3 04.11.2026 -
Bazoumana Touré Newcastle United Ativo 135 / 132 40% 1 30.10.2026 -
Alex Meret Napoli Ativo 158 / 156 40% 1 28.10.2026 -
Gianluca Prestianni Benfica Ativo 130 / 141 40% 1 23.10.2026 -
Ibrahim Sangaré Nottingham Forest Ativo 156 / 138 40% 1 22.10.2026 -
Nathan Collins Brentford Ativo 158 / 145 40% 1 18.10.2026 -
Ryan Sessegnon Fulham Ativo 139 / 151 40% 1 15.10.2026 -
Omar Alderete Sunderland Ativo 152 / 158 40% 1 15.10.2026 -
Lewis Cook Bournemouth Ativo 149 / 142 40% 1 14.10.2026 -
Antoni Milambo Brentford Ativo 133 / 135 40% 1 11.10.2026 -
Sergi Cardona KAA Gent Ativo 158 / 137 40% 2 30.09.2026 -
Rúben Neves Al-Hilal Ativo 140 / 158 40% 3 24.09.2026 -
Ritsu Doan Gamba Osaka Ativo 137 / 141 40% 1 24.09.2026 -
Théo Hernández CSKA Moscow Ativo 146 / 150 40% 1 13.09.2026 -
Valentin Atangana Al-Ahli Ativo 119 / 131 40% 1 18.08.2026 -
Givairo Read Feyenoord Ativo 126 / 147 40% 2 12.08.2026 -
Kees Smit AZ Ativo 139 / 143 40% 1 11.08.2026 -
Viktor Tsygankov Ajax Ativo 157 / 148 40% 1 10.08.2026 -
Alexander Nübel Besiktas Ativo 135 / 145 40% 2 09.08.2026 -